Time;durP1;ratioP1;P1;durP2;ratioP2;P2;SDS_P1;SDS_P2;PMS_P1;PMS_P2;Temp;Humidity;BMP_temperature;BMP_pressure;BME280_temperature;BME280_humidity;BME280_pressure;Samples;Min_cycle;Max_cycle;Signal;HPM_P1;HPM_P2
2022/04/06 00:00:12;;;;;;;46.65;21.58;;;;;;;;;;4977976;28;20130;-73
2022/04/06 00:02:39;;;;;;;43.78;22.55;;;;;;;;;;4976692;28;20077;-76
2022/04/06 00:05:06;;;;;;;49.40;22.65;;;;;;;;;;4979894;28;20055;-72
2022/04/06 00:07:32;;;;;;;39.72;21.40;;;;;;;;;;4979561;28;20046;-75
2022/04/06 00:09:58;;;;;;;43.45;22.10;;;;;;;;;;4978274;28;20042;-75
2022/04/06 00:12:24;;;;;;;46.20;22.02;;;;;;;;;;4962176;28;20489;-75
2022/04/06 00:14:50;;;;;;;39.90;22.85;;;;;;;;;;4980336;28;20536;-75
2022/04/06 00:17:16;;;;;;;39.60;21.70;;;;;;;;;;4995777;28;20050;-75
2022/04/06 00:19:42;;;;;;;47.47;21.45;;;;;;;;;;4994914;28;20043;-75
2022/04/06 00:22:08;;;;;;;46.33;21.35;;;;;;;;;;4985455;28;20050;-75
2022/04/06 00:24:34;;;;;;;38.10;20.15;;;;;;;;;;4988537;28;20050;-73
2022/04/06 00:27:00;;;;;;;41.70;20.98;;;;;;;;;;4979700;28;20051;-74
2022/04/06 00:29:26;;;;;;;42.17;19.85;;;;;;;;;;4975416;28;20093;-73
2022/04/06 00:31:53;;;;;;;45.03;19.20;;;;;;;;;;4977550;28;20405;-73
2022/04/06 00:34:19;;;;;;;40.63;19.38;;;;;;;;;;4995496;28;20039;-74
2022/04/06 00:36:45;;;;;;;40.90;19.70;;;;;;;;;;4978554;28;20454;-74
2022/04/06 00:39:12;;;;;;;37.92;18.23;;;;;;;;;;4988388;28;20053;-75
2022/04/06 00:41:39;;;;;;;42.38;17.80;;;;;;;;;;4974037;28;20050;-74
2022/04/06 00:44:12;;;;;;;43.38;18.92;;;;;;;;;;4981700;28;20054;-75
2022/04/06 00:46:38;;;;;;;41.72;18.08;;;;;;;;;;4968392;28;20086;-74
2022/04/06 00:49:07;;;;;;;42.97;18.98;;;;;;;;;;4989818;28;20525;-75
2022/04/06 00:51:33;;;;;;;38.50;18.60;;;;;;;;;;4980735;28;20252;-74
2022/04/06 00:53:59;;;;;;;38.55;18.85;;;;;;;;;;4976604;28;20057;-74
2022/04/06 00:56:25;;;;;;;41.00;17.73;;;;;;;;;;4993629;28;20050;-72
2022/04/06 00:58:51;;;;;;;35.88;18.05;;;;;;;;;;4977006;28;20069;-75
2022/04/06 01:01:17;;;;;;;42.35;19.40;;;;;;;;;;4981255;28;20484;-75
2022/04/06 01:03:43;;;;;;;40.60;17.77;;;;;;;;;;4995297;28;20050;-74
2022/04/06 01:06:09;;;;;;;43.08;17.65;;;;;;;;;;4990130;28;20035;-71
2022/04/06 01:08:35;;;;;;;38.13;16.75;;;;;;;;;;4963190;28;20097;-73
2022/04/06 01:11:01;;;;;;;42.25;18.13;;;;;;;;;;4976363;28;20047;-75
2022/04/06 01:13:28;;;;;;;45.78;16.35;;;;;;;;;;4983483;28;20034;-74
2022/04/06 01:15:54;;;;;;;37.22;16.48;;;;;;;;;;4975378;28;20054;-74
2022/04/06 01:18:20;;;;;;;40.72;17.00;;;;;;;;;;4976170;28;20409;-74
2022/04/06 01:20:46;;;;;;;35.17;15.88;;;;;;;;;;4963863;28;20055;-76
2022/04/06 01:23:12;;;;;;;38.75;15.18;;;;;;;;;;4974984;28;20047;-71
2022/04/06 01:25:39;;;;;;;33.42;14.57;;;;;;;;;;4975362;28;20054;-74
2022/04/06 01:28:06;;;;;;;41.40;15.23;;;;;;;;;;4974406;28;20053;-74
2022/04/06 01:30:33;;;;;;;31.83;13.45;;;;;;;;;;4983377;28;20354;-72
2022/04/06 01:32:59;;;;;;;43.42;15.32;;;;;;;;;;4986574;28;20066;-74
2022/04/06 01:35:25;;;;;;;38.35;14.73;;;;;;;;;;4993621;28;20509;-75
2022/04/06 01:37:51;;;;;;;36.55;13.45;;;;;;;;;;4995088;28;20133;-74
2022/04/06 01:40:18;;;;;;;33.65;13.73;;;;;;;;;;4990028;28;20078;-74
2022/04/06 01:42:44;;;;;;;29.80;13.30;;;;;;;;;;4994374;28;20050;-75
2022/04/06 01:45:10;;;;;;;34.45;13.40;;;;;;;;;;4992780;28;20049;-71
2022/04/06 01:47:36;;;;;;;38.88;13.45;;;;;;;;;;4991828;28;20062;-75
2022/04/06 01:52:47;;;;;;;28.65;12.73;;;;;;;;;;4957838;28;20051;-72
2022/04/06 01:55:14;;;;;;;35.03;12.82;;;;;;;;;;4965170;28;20047;-74
2022/04/06 01:57:40;;;;;;;34.40;13.35;;;;;;;;;;4954572;28;20046;-72
2022/04/06 02:00:15;;;;;;;31.05;12.15;;;;;;;;;;4972873;28;20050;-74
2022/04/06 02:02:41;;;;;;;26.95;11.05;;;;;;;;;;4985956;28;20485;-73
2022/04/06 02:05:08;;;;;;;30.73;11.93;;;;;;;;;;4977143;28;20050;-74
2022/04/06 02:07:34;;;;;;;33.13;12.43;;;;;;;;;;4992590;28;20133;-73
2022/04/06 02:10:00;;;;;;;32.53;11.75;;;;;;;;;;4992281;28;20157;-74
2022/04/06 02:12:26;;;;;;;29.73;10.98;;;;;;;;;;4992184;28;20512;-73
2022/04/06 02:14:53;;;;;;;31.90;11.10;;;;;;;;;;4984998;28;20053;-72
2022/04/06 02:17:19;;;;;;;29.15;10.93;;;;;;;;;;4982208;28;20051;-74
2022/04/06 02:19:45;;;;;;;26.42;11.05;;;;;;;;;;4975772;28;20457;-73
2022/04/06 02:22:11;;;;;;;27.65;10.23;;;;;;;;;;4991142;28;20052;-71
2022/04/06 02:24:38;;;;;;;26.55;9.93;;;;;;;;;;4986817;28;20077;-74
2022/04/06 02:27:08;;;;;;;29.17;9.77;;;;;;;;;;4947582;28;20046;-73
2022/04/06 02:29:34;;;;;;;28.67;10.13;;;;;;;;;;4978444;28;20050;-73
2022/04/06 02:32:00;;;;;;;28.30;9.10;;;;;;;;;;4988293;28;20054;-72
2022/04/06 02:34:26;;;;;;;25.67;9.75;;;;;;;;;;4993882;28;20054;-73
2022/04/06 02:36:52;;;;;;;27.73;9.50;;;;;;;;;;4982513;28;20489;-74
2022/04/06 02:39:18;;;;;;;23.30;8.43;;;;;;;;;;4983338;28;20047;-71
2022/04/06 02:41:44;;;;;;;24.33;9.15;;;;;;;;;;4975546;28;20545;-73
2022/04/06 02:44:10;;;;;;;26.23;8.30;;;;;;;;;;4986942;28;20104;-74
2022/04/06 02:46:36;;;;;;;21.77;8.65;;;;;;;;;;4958719;28;20043;-73
2022/04/06 02:49:02;;;;;;;24.88;9.02;;;;;;;;;;4989250;28;20531;-71
2022/04/06 02:51:28;;;;;;;24.50;8.90;;;;;;;;;;4978368;28;20452;-72
2022/04/06 02:53:54;;;;;;;24.80;8.80;;;;;;;;;;4967249;28;20042;-73
2022/04/06 02:56:20;;;;;;;22.77;8.27;;;;;;;;;;4975809;28;20050;-75
2022/04/06 02:58:46;;;;;;;24.00;8.00;;;;;;;;;;4979614;28;20042;-75
2022/04/06 03:01:12;;;;;;;22.10;7.97;;;;;;;;;;4983490;28;20452;-73
2022/04/06 03:03:38;;;;;;;26.13;8.15;;;;;;;;;;4979224;28;20085;-72
2022/04/06 03:06:05;;;;;;;26.10;8.93;;;;;;;;;;4962755;28;20105;-74
2022/04/06 03:08:31;;;;;;;25.60;8.88;;;;;;;;;;4976970;28;20047;-74
2022/04/06 03:10:59;;;;;;;24.00;9.35;;;;;;;;;;4993980;28;20054;-74
2022/04/06 03:13:25;;;;;;;24.40;8.77;;;;;;;;;;4973498;28;20118;-73
2022/04/06 03:15:51;;;;;;;23.15;8.40;;;;;;;;;;4973074;28;20043;-74
2022/04/06 03:18:17;;;;;;;32.00;8.93;;;;;;;;;;4981075;28;20042;-74
2022/04/06 03:20:43;;;;;;;26.60;9.68;;;;;;;;;;4996445;28;20050;-74
2022/04/06 03:23:09;;;;;;;28.85;10.65;;;;;;;;;;4977360;28;20485;-73
2022/04/06 03:25:35;;;;;;;32.50;10.82;;;;;;;;;;4946289;28;20097;-74
2022/04/06 03:28:01;;;;;;;25.60;10.13;;;;;;;;;;4979214;28;20041;-71
2022/04/06 03:30:27;;;;;;;31.17;11.30;;;;;;;;;;4977318;28;20050;-75
2022/04/06 03:32:53;;;;;;;29.05;11.32;;;;;;;;;;4963137;28;20485;-71
2022/04/06 03:35:19;;;;;;;33.35;12.48;;;;;;;;;;4977772;28;20083;-75
2022/04/06 03:37:45;;;;;;;35.13;12.23;;;;;;;;;;4992487;28;20046;-74
2022/04/06 03:40:12;;;;;;;31.42;12.48;;;;;;;;;;4961269;28;20401;-73
2022/04/06 03:42:38;;;;;;;33.95;12.73;;;;;;;;;;4981201;28;20050;-72
2022/04/06 03:45:05;;;;;;;31.85;13.00;;;;;;;;;;4975219;28;20085;-75
2022/04/06 03:47:34;;;;;;;36.05;14.82;;;;;;;;;;4983828;28;20043;-73
2022/04/06 03:50:00;;;;;;;37.65;14.15;;;;;;;;;;4961518;28;20069;-75
2022/04/06 03:52:27;;;;;;;33.70;13.13;;;;;;;;;;4981766;28;20105;-74
2022/04/06 03:54:53;;;;;;;38.05;15.20;;;;;;;;;;4986470;28;20391;-72
2022/04/06 03:57:19;;;;;;;33.63;14.27;;;;;;;;;;4978883;28;20054;-73
2022/04/06 03:59:45;;;;;;;32.95;14.02;;;;;;;;;;4959456;28;20052;-74
2022/04/06 04:02:11;;;;;;;38.92;14.27;;;;;;;;;;4984104;28;20050;-73
2022/04/06 04:04:37;;;;;;;36.25;14.75;;;;;;;;;;4986643;28;20043;-73
2022/04/06 04:07:06;;;;;;;32.42;14.65;;;;;;;;;;4974954;28;20520;-75
2022/04/06 04:09:32;;;;;;;36.55;15.50;;;;;;;;;;4976506;28;20438;-75
2022/04/06 04:11:58;;;;;;;31.38;14.27;;;;;;;;;;4977776;28;20133;-74
2022/04/06 04:14:25;;;;;;;38.83;15.70;;;;;;;;;;4959166;28;20050;-73
2022/04/06 04:16:51;;;;;;;35.15;15.50;;;;;;;;;;4966851;28;20386;-73
2022/04/06 04:19:17;;;;;;;34.28;13.70;;;;;;;;;;4990096;28;20049;-73
2022/04/06 04:21:43;;;;;;;42.63;14.77;;;;;;;;;;4976619;28;20046;-74
2022/04/06 04:24:09;;;;;;;33.47;13.27;;;;;;;;;;4991563;28;20046;-75
2022/04/06 04:26:36;;;;;;;34.47;13.50;;;;;;;;;;4976559;28;20663;-75
2022/04/06 04:29:05;;;;;;;29.02;13.07;;;;;;;;;;4993355;28;20089;-76
2022/04/06 04:31:31;;;;;;;30.42;12.82;;;;;;;;;;4976029;28;20086;-73
2022/04/06 04:33:57;;;;;;;34.70;12.70;;;;;;;;;;4980845;28;20047;-72
2022/04/06 04:36:23;;;;;;;31.13;12.13;;;;;;;;;;4991277;28;20473;-75
2022/04/06 04:38:50;;;;;;;32.38;12.88;;;;;;;;;;4970548;28;20121;-73
2022/04/06 04:41:16;;;;;;;30.38;11.45;;;;;;;;;;4971889;28;20042;-73
2022/04/06 04:43:42;;;;;;;29.58;12.27;;;;;;;;;;4991930;28;20057;-75
2022/04/06 04:46:09;;;;;;;30.73;11.93;;;;;;;;;;4986494;28;20069;-72
2022/04/06 04:48:35;;;;;;;24.90;11.00;;;;;;;;;;4987544;28;20092;-70
2022/04/06 04:51:01;;;;;;;27.83;11.02;;;;;;;;;;4977208;28;20050;-74
2022/04/06 04:53:27;;;;;;;27.83;10.70;;;;;;;;;;4976442;28;20039;-73
2022/04/06 04:55:56;;;;;;;30.73;11.10;;;;;;;;;;4976491;28;20043;-70
2022/04/06 04:58:22;;;;;;;28.52;10.60;;;;;;;;;;4964779;28;20054;-72
2022/04/06 05:00:48;;;;;;;32.25;11.82;;;;;;;;;;4977816;28;20472;-71
2022/04/06 05:03:14;;;;;;;33.10;11.60;;;;;;;;;;4958759;28;20491;-74
2022/04/06 05:05:44;;;;;;;29.92;11.48;;;;;;;;;;4977076;28;20047;-73
2022/04/06 05:08:10;;;;;;;23.00;10.38;;;;;;;;;;4974125;28;20413;-73
2022/04/06 05:10:36;;;;;;;25.95;10.48;;;;;;;;;;4958573;28;20046;-73
2022/04/06 05:13:04;;;;;;;30.60;10.95;;;;;;;;;;4980496;28;20366;-71
2022/04/06 05:15:30;;;;;;;28.05;10.80;;;;;;;;;;4975117;28;20046;-72
2022/04/06 05:17:56;;;;;;;23.88;9.75;;;;;;;;;;4960923;28;20050;-74
2022/04/06 05:20:22;;;;;;;23.67;9.68;;;;;;;;;;4945871;28;20053;-75
2022/04/06 05:22:48;;;;;;;26.42;11.30;;;;;;;;;;4964632;28;20051;-74
2022/04/06 05:25:14;;;;;;;20.50;9.45;;;;;;;;;;4956052;28;20047;-72
2022/04/06 05:27:46;;;;;;;22.80;9.18;;;;;;;;;;4975197;28;20101;-71
2022/04/06 05:30:13;;;;;;;28.65;10.65;;;;;;;;;;4956612;28;20057;-71
2022/04/06 05:32:39;;;;;;;26.70;10.25;;;;;;;;;;4970938;28;20051;-73
2022/04/06 05:35:06;;;;;;;23.20;9.20;;;;;;;;;;4954599;28;20082;-73
2022/04/06 05:37:33;;;;;;;30.38;10.23;;;;;;;;;;4968676;28;20585;-73
2022/04/06 05:40:00;;;;;;;25.45;9.80;;;;;;;;;;4977822;28;20497;-72
2022/04/06 05:42:26;;;;;;;21.95;9.10;;;;;;;;;;4976977;28;20057;-72
2022/04/06 05:44:52;;;;;;;23.67;8.65;;;;;;;;;;4975747;28;20521;-74
2022/04/06 05:47:19;;;;;;;21.45;9.15;;;;;;;;;;4988818;28;20046;-72
2022/04/06 05:49:45;;;;;;;20.25;8.43;;;;;;;;;;4989425;28;20416;-73
2022/04/06 05:52:12;;;;;;;26.25;8.75;;;;;;;;;;4983861;28;20049;-74
2022/04/06 05:54:38;;;;;;;24.58;8.27;;;;;;;;;;4966740;28;20141;-73
2022/04/06 05:57:04;;;;;;;20.20;7.35;;;;;;;;;;4972768;28;20045;-72
2022/04/06 05:59:30;;;;;;;24.48;8.05;;;;;;;;;;4945004;28;20046;-74
2022/04/06 06:01:56;;;;;;;24.63;8.02;;;;;;;;;;4964906;28;20042;-72
2022/04/06 06:04:22;;;;;;;16.10;6.75;;;;;;;;;;4956590;28;20490;-74
2022/04/06 06:06:48;;;;;;;15.45;6.25;;;;;;;;;;4959907;28;20058;-73
2022/04/06 06:09:14;;;;;;;20.10;6.78;;;;;;;;;;4968219;28;20088;-73
2022/04/06 06:11:41;;;;;;;15.98;5.90;;;;;;;;;;4956714;28;20051;-74
2022/04/06 06:14:07;;;;;;;13.98;5.93;;;;;;;;;;4974585;28;20062;-71
2022/04/06 06:16:33;;;;;;;19.08;5.45;;;;;;;;;;4973670;28;20054;-74
2022/04/06 06:18:59;;;;;;;16.08;5.47;;;;;;;;;;4963087;28;20498;-72
2022/04/06 06:21:27;;;;;;;22.02;5.68;;;;;;;;;;4968751;28;20055;-72
2022/04/06 06:23:54;;;;;;;20.90;5.78;;;;;;;;;;4956929;28;20058;-74
2022/04/06 06:26:20;;;;;;;22.17;5.65;;;;;;;;;;4987647;28;20508;-70
2022/04/06 06:28:46;;;;;;;15.48;4.32;;;;;;;;;;4977153;28;20050;-70
2022/04/06 06:31:12;;;;;;;20.73;6.53;;;;;;;;;;4978302;28;20051;-73
2022/04/06 06:33:38;;;;;;;13.00;4.03;;;;;;;;;;4977978;28;20073;-72
2022/04/06 06:36:04;;;;;;;11.18;3.75;;;;;;;;;;4969680;28;20047;-71
2022/04/06 06:38:30;;;;;;;13.35;3.90;;;;;;;;;;4952022;28;20051;-73
2022/04/06 06:40:56;;;;;;;11.50;4.18;;;;;;;;;;4962169;28;20065;-72
2022/04/06 06:43:22;;;;;;;9.45;3.92;;;;;;;;;;4974377;28;20045;-72
2022/04/06 06:45:48;;;;;;;13.05;4.10;;;;;;;;;;4965258;28;20142;-72
2022/04/06 06:48:14;;;;;;;9.35;3.20;;;;;;;;;;4959768;28;20120;-72
2022/04/06 06:50:40;;;;;;;12.88;4.20;;;;;;;;;;4956237;28;20039;-75
2022/04/06 06:53:07;;;;;;;12.43;3.15;;;;;;;;;;4978850;28;20371;-71
2022/04/06 06:55:33;;;;;;;11.57;3.88;;;;;;;;;;4957316;28;20054;-71
2022/04/06 06:57:59;;;;;;;12.52;4.05;;;;;;;;;;4984480;28;20043;-72
2022/04/06 07:00:25;;;;;;;10.77;3.40;;;;;;;;;;4977917;28;20154;-70
2022/04/06 07:02:51;;;;;;;11.90;3.20;;;;;;;;;;4987573;28;20150;-72
2022/04/06 07:05:17;;;;;;;18.70;4.18;;;;;;;;;;4986471;28;20050;-72
2022/04/06 07:07:54;;;;;;;13.68;3.83;;;;;;;;;;4977544;28;20053;-72
2022/04/06 07:10:21;;;;;;;12.98;3.40;;;;;;;;;;4992102;28;20085;-74
2022/04/06 07:12:47;;;;;;;10.00;3.10;;;;;;;;;;4985515;28;20517;-73
2022/04/06 07:15:14;;;;;;;15.27;3.45;;;;;;;;;;4956479;28;20117;-73
2022/04/06 07:17:40;;;;;;;7.82;2.47;;;;;;;;;;4969387;28;20085;-73
2022/04/06 07:20:07;;;;;;;10.93;3.00;;;;;;;;;;4984930;28;20086;-71
2022/04/06 07:22:33;;;;;;;16.98;3.80;;;;;;;;;;4956813;28;20489;-73
2022/04/06 07:24:59;;;;;;;13.18;3.60;;;;;;;;;;4974664;28;20046;-75
2022/04/06 07:27:25;;;;;;;16.33;3.67;;;;;;;;;;4971615;28;20101;-72
2022/04/06 07:29:53;;;;;;;11.68;3.45;;;;;;;;;;4975771;28;20043;-71
2022/04/06 07:32:19;;;;;;;9.45;3.08;;;;;;;;;;4989729;28;20089;-70
2022/04/06 07:34:45;;;;;;;13.30;3.65;;;;;;;;;;4955368;28;20043;-74
2022/04/06 07:37:11;;;;;;;6.82;3.10;;;;;;;;;;4977630;28;20057;-73
2022/04/06 07:39:37;;;;;;;13.45;3.97;;;;;;;;;;4981785;28;20039;-74
2022/04/06 07:42:04;;;;;;;15.30;3.72;;;;;;;;;;4976533;28;20035;-75
2022/04/06 07:44:29;;;;;;;13.73;4.18;;;;;;;;;;4958778;28;20066;-73
2022/04/06 07:46:55;;;;;;;12.63;4.47;;;;;;;;;;4949589;28;20050;-73
2022/04/06 07:49:22;;;;;;;12.52;4.53;;;;;;;;;;4986986;28;20132;-71
2022/04/06 07:51:48;;;;;;;11.48;5.30;;;;;;;;;;4980154;28;20083;-74
2022/04/06 07:54:14;;;;;;;14.27;5.32;;;;;;;;;;4984836;28;20042;-74
2022/04/06 07:56:42;;;;;;;14.07;5.40;;;;;;;;;;4983797;28;20066;-71
2022/04/06 07:59:08;;;;;;;11.80;4.88;;;;;;;;;;4978055;28;20062;-73
2022/04/06 08:01:34;;;;;;;16.58;5.55;;;;;;;;;;4976800;28;20042;-74
2022/04/06 08:04:00;;;;;;;10.25;6.05;;;;;;;;;;4960349;28;20051;-71
2022/04/06 08:06:26;;;;;;;20.05;5.90;;;;;;;;;;4989747;28;20126;-73
2022/04/06 08:08:53;;;;;;;17.90;6.32;;;;;;;;;;4979145;28;20091;-71
2022/04/06 08:11:22;;;;;;;12.35;5.90;;;;;;;;;;4958953;28;20051;-72
2022/04/06 08:13:49;;;;;;;15.52;6.32;;;;;;;;;;4982944;28;20056;-73
2022/04/06 08:16:15;;;;;;;17.98;7.45;;;;;;;;;;4985941;28;20042;-73
2022/04/06 08:18:41;;;;;;;16.10;7.18;;;;;;;;;;4993871;28;20039;-73
2022/04/06 08:21:07;;;;;;;16.65;7.45;;;;;;;;;;4977306;28;20424;-73
2022/04/06 08:23:33;;;;;;;19.40;7.65;;;;;;;;;;4975329;28;20433;-72
2022/04/06 08:25:59;;;;;;;14.60;7.32;;;;;;;;;;4981804;28;20122;-73
2022/04/06 08:28:26;;;;;;;16.50;7.80;;;;;;;;;;4974506;28;20042;-72
2022/04/06 08:30:52;;;;;;;15.63;8.40;;;;;;;;;;4985237;28;20054;-71
2022/04/06 08:33:18;;;;;;;18.05;7.85;;;;;;;;;;4976839;28;20051;-72
2022/04/06 08:35:44;;;;;;;22.15;8.68;;;;;;;;;;4981244;28;20408;-73
2022/04/06 08:38:15;;;;;;;21.25;8.70;;;;;;;;;;4976573;28;20087;-72
2022/04/06 08:40:42;;;;;;;23.73;9.02;;;;;;;;;;4960519;28;20529;-71
2022/04/06 08:43:09;;;;;;;17.83;8.68;;;;;;;;;;4951994;28;20054;-73
2022/04/06 08:45:36;;;;;;;22.85;9.65;;;;;;;;;;4977389;28;20046;-74
2022/04/06 08:48:02;;;;;;;20.45;9.70;;;;;;;;;;4980603;28;20080;-73
2022/04/06 08:50:29;;;;;;;23.30;9.68;;;;;;;;;;4987688;28;20058;-73
2022/04/06 08:52:56;;;;;;;27.08;10.52;;;;;;;;;;4980359;28;20051;-74
2022/04/06 08:55:22;;;;;;;19.40;9.15;;;;;;;;;;4973054;28;20043;-73
2022/04/06 08:57:48;;;;;;;25.55;10.60;;;;;;;;;;4980075;28;20058;-73
2022/04/06 09:00:16;;;;;;;14.98;7.57;;;;;;;;;;4975869;28;20046;-72
2022/04/06 09:02:42;;;;;;;21.00;8.98;;;;;;;;;;4992481;28;20058;-72
2022/04/06 09:05:09;;;;;;;19.73;8.10;;;;;;;;;;4986956;28;20575;-73
2022/04/06 09:07:37;;;;;;;16.85;8.32;;;;;;;;;;4977785;28;20104;-75
2022/04/06 09:10:03;;;;;;;19.80;7.78;;;;;;;;;;4958464;28;20086;-73
2022/04/06 09:12:30;;;;;;;18.42;7.90;;;;;;;;;;4973174;28;20046;-73
2022/04/06 09:15:06;;;;;;;21.23;8.77;;;;;;;;;;4985139;28;20092;-72
2022/04/06 09:17:35;;;;;;;18.27;8.27;;;;;;;;;;4957625;28;20086;-73
2022/04/06 09:20:03;;;;;;;24.23;8.30;;;;;;;;;;4985108;28;20078;-73
2022/04/06 09:22:31;;;;;;;18.45;6.97;;;;;;;;;;4957881;28;20046;-74
2022/04/06 09:25:00;;;;;;;11.75;5.55;;;;;;;;;;4945970;28;20113;-74
2022/04/06 09:27:33;;;;;;;12.02;6.47;;;;;;;;;;4958095;28;20034;-72
2022/04/06 09:29:59;;;;;;;16.30;6.55;;;;;;;;;;4988372;28;20039;-72
2022/04/06 09:32:25;;;;;;;17.65;6.88;;;;;;;;;;4991317;28;20468;-72
2022/04/06 09:34:52;;;;;;;13.48;6.60;;;;;;;;;;4955504;28;20117;-71
2022/04/06 09:37:21;;;;;;;18.45;6.97;;;;;;;;;;4990232;28;20478;-71
2022/04/06 09:39:47;;;;;;;14.30;7.28;;;;;;;;;;4959054;28;20173;-76
2022/04/06 09:42:24;;;;;;;13.32;5.10;;;;;;;;;;4969889;28;20054;-76
2022/04/06 09:48:01;;;;;;;12.60;5.15;;;;;;;;;;4934100;29;20059;-71
2022/04/06 09:50:27;;;;;;;13.60;5.30;;;;;;;;;;4917992;29;20083;-73
2022/04/06 09:52:57;;;;;;;11.10;5.43;;;;;;;;;;4918716;29;20044;-73
2022/04/06 09:55:23;;;;;;;10.45;4.25;;;;;;;;;;4918576;29;20123;-71
2022/04/06 09:57:51;;;;;;;12.43;5.15;;;;;;;;;;4933344;29;20663;-73
2022/04/06 10:00:22;;;;;;;9.93;4.80;;;;;;;;;;4917767;29;20512;-72
2022/04/06 10:03:08;;;;;;;11.15;4.40;;;;;;;;;;4933152;29;20058;-71
2022/04/06 10:05:35;;;;;;;10.25;4.80;;;;;;;;;;4915602;29;20563;-72
2022/04/06 10:08:02;;;;;;;10.77;4.97;;;;;;;;;;4933842;29;20083;-70
2022/04/06 10:10:29;;;;;;;9.60;5.40;;;;;;;;;;4933134;29;20055;-73
2022/04/06 10:12:57;;;;;;;8.57;4.53;;;;;;;;;;4933044;29;20047;-73
2022/04/06 10:15:24;;;;;;;13.60;5.70;;;;;;;;;;4932877;29;20052;-74
2022/04/06 10:17:50;;;;;;;12.38;5.78;;;;;;;;;;4933317;29;20087;-74
2022/04/06 10:20:23;;;;;;;18.20;7.18;;;;;;;;;;4932900;29;20482;-74
2022/04/06 10:22:58;;;;;;;13.70;6.15;;;;;;;;;;4928838;28;20433;-72
2022/04/06 10:25:31;;;;;;;12.50;6.03;;;;;;;;;;4968328;28;20516;-76
2022/04/06 10:27:58;;;;;;;12.65;5.68;;;;;;;;;;4962572;28;20117;-74
2022/04/06 10:30:26;;;;;;;16.60;6.18;;;;;;;;;;4973999;28;20050;-75
2022/04/06 10:32:52;;;;;;;16.10;6.85;;;;;;;;;;4982870;28;20053;-73
2022/04/06 10:35:28;;;;;;;12.65;5.97;;;;;;;;;;4975965;28;20077;-74
2022/04/06 10:37:56;;;;;;;14.27;5.93;;;;;;;;;;4974885;28;20050;-75
2022/04/06 10:40:43;;;;;;;12.27;5.70;;;;;;;;;;4973897;28;20039;-71
2022/04/06 10:43:28;;;;;;;10.05;5.65;;;;;;;;;;4946591;28;20054;-73
2022/04/06 10:45:54;;;;;;;15.68;7.40;;;;;;;;;;4982450;28;20505;-70
2022/04/06 10:48:20;;;;;;;15.68;6.60;;;;;;;;;;4990072;28;20062;-72
2022/04/06 10:50:47;;;;;;;12.52;5.50;;;;;;;;;;4971560;28;20055;-74
2022/04/06 10:53:22;;;;;;;13.43;6.40;;;;;;;;;;4986925;28;20485;-75
2022/04/06 10:56:05;;;;;;;11.73;6.47;;;;;;;;;;4972213;28;20544;-75
2022/04/06 10:58:57;;;;;;;12.27;6.30;;;;;;;;;;4977660;28;20042;-74
2022/04/06 11:01:27;;;;;;;12.38;5.60;;;;;;;;;;4982451;28;20038;-74
2022/04/06 11:03:58;;;;;;;11.07;6.00;;;;;;;;;;4980017;28;20038;-73
2022/04/06 11:06:44;;;;;;;11.25;6.57;;;;;;;;;;4975058;28;20410;-71
2022/04/06 11:12:14;;;;;;;12.57;7.57;;;;;;;;;;4983595;28;20121;-72
2022/04/06 11:14:40;;;;;;;12.60;7.50;;;;;;;;;;4990155;28;20121;-74
2022/04/06 11:17:26;;;;;;;16.73;7.35;;;;;;;;;;4995141;28;20042;-73
2022/04/06 11:19:52;;;;;;;13.27;7.72;;;;;;;;;;4997084;28;20054;-71
2022/04/06 11:22:22;;;;;;;14.23;6.88;;;;;;;;;;4977578;28;20065;-72
2022/04/06 11:24:48;;;;;;;16.75;7.00;;;;;;;;;;4971064;28;20046;-71
2022/04/06 11:27:33;;;;;;;25.27;10.13;;;;;;;;;;4977432;28;20401;-71
2022/04/06 11:30:09;;;;;;;14.30;8.30;;;;;;;;;;4980164;28;20055;-73
2022/04/06 11:32:39;;;;;;;18.40;8.77;;;;;;;;;;4960178;28;20409;-72
2022/04/06 11:35:10;;;;;;;21.13;9.50;;;;;;;;;;4963841;28;20054;-73
2022/04/06 11:37:41;;;;;;;17.27;9.32;;;;;;;;;;4985570;28;20169;-74
2022/04/06 11:40:07;;;;;;;18.08;9.13;;;;;;;;;;4960122;28;20046;-72
2022/04/06 11:42:33;;;;;;;16.13;8.38;;;;;;;;;;4976297;28;20043;-74
2022/04/06 11:44:59;;;;;;;14.80;8.10;;;;;;;;;;4964865;28;20058;-72
2022/04/06 11:47:28;;;;;;;20.63;9.38;;;;;;;;;;4993150;28;20093;-74
2022/04/06 11:49:54;;;;;;;17.08;9.10;;;;;;;;;;4992406;28;20416;-72
2022/04/06 11:52:21;;;;;;;16.95;8.52;;;;;;;;;;4975523;28;20046;-71
2022/04/06 11:54:51;;;;;;;14.77;8.65;;;;;;;;;;4960072;28;20049;-71
2022/04/06 11:57:17;;;;;;;17.13;9.10;;;;;;;;;;4948283;28;20482;-73
2022/04/06 11:59:55;;;;;;;17.00;9.38;;;;;;;;;;4981294;28;20090;-72
2022/04/06 12:02:22;;;;;;;14.30;8.23;;;;;;;;;;4976111;28;20047;-74
2022/04/06 12:04:59;;;;;;;13.80;8.32;;;;;;;;;;4977832;28;20093;-73
2022/04/06 12:07:25;;;;;;;13.85;7.78;;;;;;;;;;4978229;28;20046;-73
2022/04/06 12:09:51;;;;;;;14.45;7.32;;;;;;;;;;4993805;28;20180;-71
2022/04/06 12:12:18;;;;;;;16.15;7.90;;;;;;;;;;4981059;28;20042;-72
2022/04/06 12:14:45;;;;;;;14.23;7.82;;;;;;;;;;4967955;28;20058;-71
2022/04/06 12:17:13;;;;;;;12.77;7.90;;;;;;;;;;4980972;28;20050;-71
2022/04/06 12:19:39;;;;;;;17.20;7.57;;;;;;;;;;4964206;28;20100;-73
2022/04/06 12:22:11;;;;;;;11.55;7.13;;;;;;;;;;4976248;28;20078;-74
2022/04/06 12:24:46;;;;;;;14.20;7.85;;;;;;;;;;4974056;28;20055;-75
2022/04/06 12:27:27;;;;;;;11.68;8.07;;;;;;;;;;4977754;28;20481;-73
2022/04/06 12:30:07;;;;;;;14.40;7.90;;;;;;;;;;4976574;28;20066;-71
2022/04/06 12:32:43;;;;;;;14.07;8.30;;;;;;;;;;4974300;28;20085;-71
2022/04/06 12:35:24;;;;;;;16.30;8.80;;;;;;;;;;4977212;28;20050;-72
2022/04/06 12:37:50;;;;;;;15.80;8.10;;;;;;;;;;4969253;28;20050;-71
2022/04/06 12:40:23;;;;;;;17.08;8.93;;;;;;;;;;4969494;28;20062;-73
2022/04/06 12:42:49;;;;;;;16.27;9.02;;;;;;;;;;4987444;28;20417;-74
2022/04/06 12:45:15;;;;;;;14.25;8.50;;;;;;;;;;4993660;28;20492;-73
2022/04/06 12:47:41;;;;;;;12.85;8.40;;;;;;;;;;4974667;28;20510;-73
2022/04/06 12:50:19;;;;;;;13.90;8.43;;;;;;;;;;4976264;28;20047;-72
2022/04/06 12:52:47;;;;;;;16.20;9.90;;;;;;;;;;4992625;28;20043;-73
2022/04/06 12:55:15;;;;;;;18.52;13.93;;;;;;;;;;4960903;28;20200;-73
2022/04/06 12:57:42;;;;;;;13.63;9.82;;;;;;;;;;4978826;28;20108;-73
2022/04/06 13:00:13;;;;;;;18.98;10.13;;;;;;;;;;4989881;28;20556;-74
2022/04/06 13:02:39;;;;;;;20.27;9.80;;;;;;;;;;4987342;28;20088;-73
2022/04/06 13:05:05;;;;;;;21.25;11.32;;;;;;;;;;4975100;28;20066;-75
2022/04/06 13:07:32;;;;;;;13.73;10.63;;;;;;;;;;4969418;28;20090;-72
2022/04/06 13:09:59;;;;;;;18.83;11.85;;;;;;;;;;4959265;28;20049;-75
2022/04/06 13:12:26;;;;;;;17.52;12.50;;;;;;;;;;4962181;28;20043;-76
2022/04/06 13:14:53;;;;;;;16.00;9.10;;;;;;;;;;4968885;28;20121;-75
2022/04/06 13:17:20;;;;;;;18.48;11.07;;;;;;;;;;4980635;28;20093;-72
2022/04/06 13:19:48;;;;;;;14.77;7.90;;;;;;;;;;4981532;28;20529;-73
2022/04/06 13:22:14;;;;;;;14.13;8.07;;;;;;;;;;4972381;28;20137;-75
2022/04/06 13:24:41;;;;;;;16.42;7.93;;;;;;;;;;4973764;28;20050;-71
2022/04/06 13:27:07;;;;;;;10.98;8.35;;;;;;;;;;4993659;28;20038;-73
2022/04/06 13:29:33;;;;;;;32.08;26.98;;;;;;;;;;4994171;28;20108;-73
2022/04/06 13:32:00;;;;;;;17.60;12.18;;;;;;;;;;4989832;28;20047;-72
2022/04/06 13:34:26;;;;;;;17.95;11.02;;;;;;;;;;4978003;28;20043;-74
2022/04/06 13:36:52;;;;;;;21.92;17.02;;;;;;;;;;4983077;28;20512;-72
2022/04/06 13:39:18;;;;;;;15.18;9.88;;;;;;;;;;4977506;28;20046;-71
2022/04/06 13:41:44;;;;;;;23.20;12.77;;;;;;;;;;4984113;28;20038;-71
2022/04/06 13:44:12;;;;;;;21.00;10.63;;;;;;;;;;4967164;28;20051;-70
2022/04/06 13:46:38;;;;;;;19.13;10.68;;;;;;;;;;4975219;28;20042;-73
2022/04/06 13:49:05;;;;;;;14.35;8.80;;;;;;;;;;4983420;28;20062;-71
2022/04/06 13:51:34;;;;;;;16.58;10.23;;;;;;;;;;4984170;28;20046;-72
2022/04/06 13:54:00;;;;;;;23.23;11.40;;;;;;;;;;4974895;28;20038;-72
2022/04/06 13:56:26;;;;;;;37.30;13.13;;;;;;;;;;4991464;28;20042;-72
2022/04/06 13:58:52;;;;;;;15.20;9.90;;;;;;;;;;4982063;28;20121;-72
2022/04/06 14:01:18;;;;;;;13.57;10.25;;;;;;;;;;4960703;28;20130;-73
2022/04/06 14:03:44;;;;;;;16.92;10.20;;;;;;;;;;4994278;28;20502;-74
2022/04/06 14:06:11;;;;;;;18.40;10.25;;;;;;;;;;4984413;28;20109;-71
2022/04/06 14:08:37;;;;;;;22.58;11.40;;;;;;;;;;4974795;28;20093;-73
2022/04/06 14:11:03;;;;;;;21.20;11.18;;;;;;;;;;4985011;28;20145;-72
2022/04/06 14:13:29;;;;;;;25.02;13.32;;;;;;;;;;4984978;28;20533;-71
2022/04/06 14:15:55;;;;;;;24.27;13.55;;;;;;;;;;4973213;28;20051;-72
2022/04/06 14:18:21;;;;;;;30.70;14.52;;;;;;;;;;4978045;28;20054;-73
2022/04/06 14:20:48;;;;;;;20.55;12.32;;;;;;;;;;4975544;28;20058;-73
2022/04/06 14:23:14;;;;;;;22.70;13.15;;;;;;;;;;4975804;28;20133;-74
2022/04/06 14:25:42;;;;;;;21.95;12.45;;;;;;;;;;4977082;28;20043;-72
2022/04/06 14:28:08;;;;;;;26.20;12.65;;;;;;;;;;4999475;28;20069;-72
2022/04/06 14:30:34;;;;;;;18.38;11.55;;;;;;;;;;4984887;28;20057;-72
2022/04/06 14:33:00;;;;;;;29.10;15.13;;;;;;;;;;4981164;28;20038;-73
2022/04/06 14:35:26;;;;;;;21.35;11.82;;;;;;;;;;4975612;28;20178;-74